sensor_id;sensor_type;location;lat;lon;timestamp;pressure;altitude;pressure_sealevel;temperature;humidity
49044;BME280;34860;48.066;14.124;2023-04-25T00:02:06;96000.69;;;9.80;58.21
49044;BME280;34860;48.066;14.124;2023-04-25T00:04:59;95997.91;;;9.80;57.99
49044;BME280;34860;48.066;14.124;2023-04-25T00:07:51;95993.59;;;9.79;58.09
49044;BME280;34860;48.066;14.124;2023-04-25T00:10:39;95999.59;;;9.78;58.20
49044;BME280;34860;48.066;14.124;2023-04-25T00:13:31;95990.50;;;9.77;58.26
49044;BME280;34860;48.066;14.124;2023-04-25T00:16:22;95996.50;;;9.76;58.25
49044;BME280;34860;48.066;14.124;2023-04-25T00:19:10;95987.06;;;9.73;58.31
49044;BME280;34860;48.066;14.124;2023-04-25T00:22:00;95993.84;;;9.72;58.40
49044;BME280;34860;48.066;14.124;2023-04-25T00:24:49;95990.28;;;9.72;58.51
49044;BME280;34860;48.066;14.124;2023-04-25T00:27:41;95985.19;;;9.70;58.48
49044;BME280;34860;48.066;14.124;2023-04-25T00:30:34;95981.31;;;9.68;58.59
49044;BME280;34860;48.066;14.124;2023-04-25T00:33:24;95983.31;;;9.67;58.48
49044;BME280;34860;48.066;14.124;2023-04-25T00:36:13;95987.75;;;9.64;58.62
49044;BME280;34860;48.066;14.124;2023-04-25T00:39:02;95981.44;;;9.64;58.51
49044;BME280;34860;48.066;14.124;2023-04-25T00:41:53;95978.31;;;9.62;58.61
49044;BME280;34860;48.066;14.124;2023-04-25T00:44:50;95968.91;;;9.59;58.60
49044;BME280;34860;48.066;14.124;2023-04-25T00:47:42;95968.59;;;9.57;58.67
49044;BME280;34860;48.066;14.124;2023-04-25T00:50:32;95973.34;;;9.57;58.63
49044;BME280;34860;48.066;14.124;2023-04-25T00:53:22;95979.78;;;9.54;58.60
49044;BME280;34860;48.066;14.124;2023-04-25T00:56:10;95976.56;;;9.55;58.39
49044;BME280;34860;48.066;14.124;2023-04-25T00:58:59;95975.13;;;9.51;58.59
49044;BME280;34860;48.066;14.124;2023-04-25T01:01:50;95970.81;;;9.50;58.58
49044;BME280;34860;48.066;14.124;2023-04-25T01:04:44;95968.94;;;9.47;58.61
49044;BME280;34860;48.066;14.124;2023-04-25T01:07:33;95962.28;;;9.44;58.52
49044;BME280;34860;48.066;14.124;2023-04-25T01:10:22;95964.72;;;9.42;58.64
49044;BME280;34860;48.066;14.124;2023-04-25T01:13:11;95969.16;;;9.39;58.64
49044;BME280;34860;48.066;14.124;2023-04-25T01:16:00;95968.38;;;9.39;58.62
49044;BME280;34860;48.066;14.124;2023-04-25T01:18:52;95963.28;;;9.37;58.73
49044;BME280;34860;48.066;14.124;2023-04-25T01:21:42;95958.94;;;9.36;58.77
49044;BME280;34860;48.066;14.124;2023-04-25T01:24:34;95958.94;;;9.36;58.79
49044;BME280;34860;48.066;14.124;2023-04-25T01:27:23;95963.72;;;9.36;58.81
49044;BME280;34860;48.066;14.124;2023-04-25T01:30:13;95953.84;;;9.35;58.68
49044;BME280;34860;48.066;14.124;2023-04-25T01:33:03;95952.63;;;9.36;58.63
49044;BME280;34860;48.066;14.124;2023-04-25T01:35:57;95951.44;;;9.37;58.61
49044;BME280;34860;48.066;14.124;2023-04-25T01:38:52;95950.63;;;9.36;58.57
49044;BME280;34860;48.066;14.124;2023-04-25T01:41:42;95952.19;;;9.37;58.64
49044;BME280;34860;48.066;14.124;2023-04-25T01:44:34;95953.41;;;9.36;58.60
49044;BME280;34860;48.066;14.124;2023-04-25T01:47:24;95957.75;;;9.37;58.76
49044;BME280;34860;48.066;14.124;2023-04-25T01:50:16;95950.19;;;9.38;58.20
49044;BME280;34860;48.066;14.124;2023-04-25T01:53:09;95951.44;;;9.37;58.35
49044;BME280;34860;48.066;14.124;2023-04-25T01:56:00;95941.88;;;9.38;58.29
49044;BME280;34860;48.066;14.124;2023-04-25T01:58:54;95940.34;;;9.37;58.40
49044;BME280;34860;48.066;14.124;2023-04-25T02:02:01;95940.34;;;9.37;58.42
49044;BME280;34860;48.066;14.124;2023-04-25T02:04:54;95942.66;;;9.38;58.42
49044;BME280;34860;48.066;14.124;2023-04-25T02:07:46;95926.91;;;9.35;58.49
49044;BME280;34860;48.066;14.124;2023-04-25T02:10:36;95929.69;;;9.35;58.54
49044;BME280;34860;48.066;14.124;2023-04-25T02:13:51;95919.38;;;9.36;58.63
49044;BME280;34860;48.066;14.124;2023-04-25T02:17:02;95928.13;;;9.34;58.50
49044;BME280;34860;48.066;14.124;2023-04-25T02:19:52;95927.38;;;9.34;58.61
49044;BME280;34860;48.066;14.124;2023-04-25T02:22:42;95927.38;;;9.34;58.60
49044;BME280;34860;48.066;14.124;2023-04-25T02:25:31;95925.81;;;9.33;58.60
49044;BME280;34860;48.066;14.124;2023-04-25T02:28:20;95936.91;;;9.33;58.79
49044;BME280;34860;48.066;14.124;2023-04-25T02:31:12;95933.00;;;9.30;58.59
49044;BME280;34860;48.066;14.124;2023-04-25T02:34:01;95924.38;;;9.28;58.45
49044;BME280;34860;48.066;14.124;2023-04-25T02:36:55;95914.16;;;9.25;58.61
49044;BME280;34860;48.066;14.124;2023-04-25T02:39:47;95909.88;;;9.24;58.79
49044;BME280;34860;48.066;14.124;2023-04-25T02:42:39;95913.84;;;9.23;58.96
49044;BME280;34860;48.066;14.124;2023-04-25T02:45:28;95904.75;;;9.22;58.64
49044;BME280;34860;48.066;14.124;2023-04-25T02:48:20;95899.66;;;9.21;58.74
49044;BME280;34860;48.066;14.124;2023-04-25T02:51:09;95906.41;;;9.20;58.67
49044;BME280;34860;48.066;14.124;2023-04-25T02:54:00;95899.00;;;9.17;58.73
49044;BME280;34860;48.066;14.124;2023-04-25T02:56:57;95896.66;;;9.15;58.78
49044;BME280;34860;48.066;14.124;2023-04-25T02:59:54;95909.75;;;9.15;58.79
49044;BME280;34860;48.066;14.124;2023-04-25T03:02:44;95907.00;;;9.15;58.78
49044;BME280;34860;48.066;14.124;2023-04-25T03:05:39;95901.13;;;9.13;58.81
49044;BME280;34860;48.066;14.124;2023-04-25T03:08:28;95901.56;;;9.11;58.75
49044;BME280;34860;48.066;14.124;2023-04-25T03:11:20;95907.56;;;9.09;58.70
49044;BME280;34860;48.066;14.124;2023-04-25T03:14:08;95909.97;;;9.07;58.75
49044;BME280;34860;48.066;14.124;2023-04-25T03:16:57;95896.56;;;9.06;58.75
49044;BME280;34860;48.066;14.124;2023-04-25T03:19:51;95900.56;;;9.05;58.76
49044;BME280;34860;48.066;14.124;2023-04-25T03:22:41;95895.03;;;9.05;58.81
49044;BME280;34860;48.066;14.124;2023-04-25T03:25:34;95894.25;;;9.04;58.72
49044;BME280;34860;48.066;14.124;2023-04-25T03:28:23;95890.69;;;9.04;58.69
49044;BME280;34860;48.066;14.124;2023-04-25T03:31:13;95887.16;;;9.03;58.67
49044;BME280;34860;48.066;14.124;2023-04-25T03:34:06;95891.47;;;9.04;58.62
49044;BME280;34860;48.066;14.124;2023-04-25T03:36:55;95878.94;;;9.00;58.61
49044;BME280;34860;48.066;14.124;2023-04-25T03:39:52;95871.06;;;8.98;58.79
49044;BME280;34860;48.066;14.124;2023-04-25T03:42:45;95881.72;;;9.00;58.86
49044;BME280;34860;48.066;14.124;2023-04-25T03:45:37;95873.53;;;8.96;58.81
49044;BME280;34860;48.066;14.124;2023-04-25T03:48:26;95888.94;;;8.97;58.70
49044;BME280;34860;48.066;14.124;2023-04-25T03:51:17;95879.06;;;8.96;58.87
49044;BME280;34860;48.066;14.124;2023-04-25T03:54:08;95879.06;;;8.96;58.79
49044;BME280;34860;48.066;14.124;2023-04-25T03:57:19;95872.44;;;8.94;58.86
49044;BME280;34860;48.066;14.124;2023-04-25T04:00:09;95885.06;;;8.95;58.79
49044;BME280;34860;48.066;14.124;2023-04-25T04:02:59;95881.97;;;8.93;58.93
49044;BME280;34860;48.066;14.124;2023-04-25T04:05:54;95877.97;;;8.94;58.87
49044;BME280;34860;48.066;14.124;2023-04-25T04:08:44;95887.06;;;8.94;58.91
49044;BME280;34860;48.066;14.124;2023-04-25T04:11:36;95896.94;;;8.95;58.80
49044;BME280;34860;48.066;14.124;2023-04-25T04:14:27;95892.16;;;8.96;58.83
49044;BME280;34860;48.066;14.124;2023-04-25T04:17:20;95894.94;;;8.96;58.63
49044;BME280;34860;48.066;14.124;2023-04-25T04:20:12;95889.38;;;8.96;58.49
49044;BME280;34860;48.066;14.124;2023-04-25T04:23:03;95887.38;;;8.96;58.52
49044;BME280;34860;48.066;14.124;2023-04-25T04:25:54;95888.19;;;8.97;58.63
49044;BME280;34860;48.066;14.124;2023-04-25T04:29:15;95882.63;;;8.97;58.67
49044;BME280;34860;48.066;14.124;2023-04-25T04:32:23;95887.06;;;8.94;58.50
49044;BME280;34860;48.066;14.124;2023-04-25T04:35:18;95891.84;;;8.94;58.56
49044;BME280;34860;48.066;14.124;2023-04-25T04:38:07;95895.81;;;8.93;58.41
49044;BME280;34860;48.066;14.124;2023-04-25T04:41:00;95897.81;;;8.92;58.61
49044;BME280;34860;48.066;14.124;2023-04-25T04:44:12;95884.41;;;8.90;58.62
49044;BME280;34860;48.066;14.124;2023-04-25T04:47:20;95888.72;;;8.91;58.72
49044;BME280;34860;48.066;14.124;2023-04-25T04:50:33;95892.28;;;8.92;58.75
49044;BME280;34860;48.066;14.124;2023-04-25T04:53:40;95886.75;;;8.92;58.71
49044;BME280;34860;48.066;14.124;2023-04-25T04:56:52;95876.75;;;8.95;58.65
49044;BME280;34860;48.066;14.124;2023-04-25T04:59:57;95886.63;;;8.96;58.62
49044;BME280;34860;48.066;14.124;2023-04-25T05:03:04;95885.72;;;8.99;58.54
49044;BME280;34860;48.066;14.124;2023-04-25T05:06:22;95891.59;;;9.01;58.51
49044;BME280;34860;48.066;14.124;2023-04-25T05:09:41;95891.59;;;9.01;58.61
49044;BME280;34860;48.066;14.124;2023-04-25T05:12:41;95893.16;;;9.02;58.58
49044;BME280;34860;48.066;14.124;2023-04-25T05:15:50;95884.41;;;9.03;58.74
49044;BME280;34860;48.066;14.124;2023-04-25T05:19:02;95889.50;;;9.05;58.48
49044;BME280;34860;48.066;14.124;2023-04-25T05:22:05;95898.13;;;9.07;58.57
49044;BME280;34860;48.066;14.124;2023-04-25T05:25:22;95891.38;;;9.08;58.57
49044;BME280;34860;48.066;14.124;2023-04-25T05:28:31;95893.56;;;9.13;58.42
49044;BME280;34860;48.066;14.124;2023-04-25T05:31:41;95877.03;;;9.22;58.34
49044;BME280;34860;48.066;14.124;2023-04-25T05:34:34;95883.44;;;9.32;58.08
49044;BME280;34860;48.066;14.124;2023-04-25T05:37:35;95877.41;;;9.47;58.06
49044;BME280;34860;48.066;14.124;2023-04-25T05:40:32;95882.16;;;9.59;58.03
49044;BME280;34860;48.066;14.124;2023-04-25T05:43:35;95876.66;;;9.68;58.05
49044;BME280;34860;48.066;14.124;2023-04-25T05:46:39;95886.59;;;9.78;57.81
49044;BME280;34860;48.066;14.124;2023-04-25T05:49:35;95890.00;;;9.82;57.84
49044;BME280;34860;48.066;14.124;2023-04-25T05:52:44;95878.00;;;9.86;57.88
49044;BME280;34860;48.066;14.124;2023-04-25T05:55:43;95889.44;;;9.88;58.04
49044;BME280;34860;48.066;14.124;2023-04-25T05:58:43;95888.56;;;9.91;58.05
49044;BME280;34860;48.066;14.124;2023-04-25T06:01:32;95890.53;;;9.90;58.15
49044;BME280;34860;48.066;14.124;2023-04-25T06:04:20;95885.28;;;9.92;58.06
49044;BME280;34860;48.066;14.124;2023-04-25T06:07:14;95874.69;;;9.91;57.87
49044;BME280;34860;48.066;14.124;2023-04-25T06:10:08;95879.28;;;9.94;58.21
49044;BME280;34860;48.066;14.124;2023-04-25T06:13:01;95883.63;;;9.95;58.10
49044;BME280;34860;48.066;14.124;2023-04-25T06:15:51;95883.50;;;9.98;58.17
49044;BME280;34860;48.066;14.124;2023-04-25T06:18:41;95881.38;;;10.03;58.22
49044;BME280;34860;48.066;14.124;2023-04-25T06:21:34;95876.44;;;10.07;58.27
49044;BME280;34860;48.066;14.124;2023-04-25T06:24:23;95871.56;;;10.11;58.20
49044;BME280;34860;48.066;14.124;2023-04-25T06:27:16;95870.97;;;10.16;58.27
49044;BME280;34860;48.066;14.124;2023-04-25T06:30:08;95882.25;;;10.22;58.21
49044;BME280;34860;48.066;14.124;2023-04-25T06:32:56;95880.91;;;10.26;58.15
49044;BME280;34860;48.066;14.124;2023-04-25T06:35:47;95879.44;;;10.34;58.06
49044;BME280;34860;48.066;14.124;2023-04-25T06:38:41;95872.69;;;10.45;58.03
49044;BME280;34860;48.066;14.124;2023-04-25T06:41:30;95873.84;;;10.57;57.81
49044;BME280;34860;48.066;14.124;2023-04-25T06:44:28;95872.16;;;10.68;57.73
49044;BME280;34860;48.066;14.124;2023-04-25T06:47:17;95875.75;;;10.78;57.74
49044;BME280;34860;48.066;14.124;2023-04-25T06:50:08;95872.69;;;10.85;57.68
49044;BME280;34860;48.066;14.124;2023-04-25T06:52:59;95870.53;;;10.89;57.62
49044;BME280;34860;48.066;14.124;2023-04-25T06:55:49;95870.72;;;10.95;57.53
49044;BME280;34860;48.066;14.124;2023-04-25T06:58:40;95867.94;;;10.95;57.65
49044;BME280;34860;48.066;14.124;2023-04-25T07:01:41;95869.50;;;10.96;57.74
49044;BME280;34860;48.066;14.124;2023-04-25T07:04:35;95867.47;;;10.97;57.70
49044;BME280;34860;48.066;14.124;2023-04-25T07:07:26;95870.25;;;10.97;57.79
49044;BME280;34860;48.066;14.124;2023-04-25T07:10:17;95867.94;;;10.95;57.88
49044;BME280;34860;48.066;14.124;2023-04-25T07:13:09;95869.50;;;10.96;57.84
49044;BME280;34860;48.066;14.124;2023-04-25T07:16:00;95866.72;;;10.96;57.91
49044;BME280;34860;48.066;14.124;2023-04-25T07:18:52;95870.72;;;10.95;57.77
49044;BME280;34860;48.066;14.124;2023-04-25T07:21:42;95870.25;;;10.97;57.86
49044;BME280;34860;48.066;14.124;2023-04-25T07:24:32;95869.81;;;10.98;58.03
49044;BME280;34860;48.066;14.124;2023-04-25T07:27:20;95864.56;;;11.00;57.99
49044;BME280;34860;48.066;14.124;2023-04-25T07:30:20;95867.34;;;11.00;57.98
49044;BME280;34860;48.066;14.124;2023-04-25T07:33:10;95865.66;;;11.03;57.85
49044;BME280;34860;48.066;14.124;2023-04-25T07:36:01;95861.63;;;11.04;57.91
49044;BME280;34860;48.066;14.124;2023-04-25T07:38:52;95860.84;;;11.03;57.91
49044;BME280;34860;48.066;14.124;2023-04-25T07:41:42;95848.97;;;11.03;57.97
49044;BME280;34860;48.066;14.124;2023-04-25T07:44:39;95856.06;;;11.04;57.90
49044;BME280;34860;48.066;14.124;2023-04-25T07:47:31;95855.59;;;11.05;57.97
49044;BME280;34860;48.066;14.124;2023-04-25T07:50:28;95854.38;;;11.06;57.75
49044;BME280;34860;48.066;14.124;2023-04-25T07:53:19;95844.34;;;11.09;57.84
49044;BME280;34860;48.066;14.124;2023-04-25T07:56:17;95846.22;;;11.12;57.86
49044;BME280;34860;48.066;14.124;2023-04-25T07:59:07;95850.69;;;11.19;57.81
49044;BME280;34860;48.066;14.124;2023-04-25T08:01:57;95839.72;;;11.24;57.70
49044;BME280;34860;48.066;14.124;2023-04-25T08:04:51;95841.41;;;11.31;57.66
49044;BME280;34860;48.066;14.124;2023-04-25T08:07:40;95830.00;;;11.38;57.57
49044;BME280;34860;48.066;14.124;2023-04-25T08:10:30;95834.31;;;11.49;57.54
49044;BME280;34860;48.066;14.124;2023-04-25T08:13:23;95841.91;;;11.57;57.39
49044;BME280;34860;48.066;14.124;2023-04-25T08:16:12;95840.34;;;11.66;57.33
49044;BME280;34860;48.066;14.124;2023-04-25T08:19:02;95834.97;;;11.71;57.19
49044;BME280;34860;48.066;14.124;2023-04-25T08:21:53;95837.09;;;11.76;57.19
49044;BME280;34860;48.066;14.124;2023-04-25T08:24:50;95848.53;;;11.78;57.24
49044;BME280;34860;48.066;14.124;2023-04-25T08:27:42;95849.31;;;11.79;57.36
49044;BME280;34860;48.066;14.124;2023-04-25T08:30:36;95845.75;;;11.78;57.44
49044;BME280;34860;48.066;14.124;2023-04-25T08:33:27;95841.41;;;11.77;57.60
49044;BME280;34860;48.066;14.124;2023-04-25T08:36:22;95844.69;;;11.76;57.63
49044;BME280;34860;48.066;14.124;2023-04-25T08:39:23;95847.16;;;11.74;57.82
49044;BME280;34860;48.066;14.124;2023-04-25T08:42:32;95846.84;;;11.72;57.83
49044;BME280;34860;48.066;14.124;2023-04-25T08:45:26;95844.06;;;11.72;57.94
49044;BME280;34860;48.066;14.124;2023-04-25T08:48:16;95846.38;;;11.73;58.12
49044;BME280;34860;48.066;14.124;2023-04-25T08:51:07;95852.72;;;11.74;58.22
49044;BME280;34860;48.066;14.124;2023-04-25T08:54:04;95846.22;;;11.77;57.71
49044;BME280;34860;48.066;14.124;2023-04-25T08:57:05;95844.53;;;11.79;57.97
49044;BME280;34860;48.066;14.124;2023-04-25T08:59:57;95835.38;;;11.79;57.98
49044;BME280;34860;48.066;14.124;2023-04-25T09:02:50;95840.03;;;11.82;57.87
49044;BME280;34860;48.066;14.124;2023-04-25T09:05:42;95840.66;;;11.86;57.68
49044;BME280;34860;48.066;14.124;2023-04-25T09:08:30;95841.88;;;11.85;57.93
49044;BME280;34860;48.066;14.124;2023-04-25T09:11:19;95841.41;;;11.87;57.79
49044;BME280;34860;48.066;14.124;2023-04-25T09:14:13;95840.94;;;11.88;58.03
49044;BME280;34860;48.066;14.124;2023-04-25T09:17:24;95839.25;;;11.91;57.84
49044;BME280;34860;48.066;14.124;2023-04-25T09:20:17;95835.41;;;11.97;57.71
49044;BME280;34860;48.066;14.124;2023-04-25T09:23:06;95833.84;;;12.06;57.55
49044;BME280;34860;48.066;14.124;2023-04-25T09:25:59;95843.72;;;12.16;57.22
49044;BME280;34860;48.066;14.124;2023-04-25T09:29:04;95856.09;;;12.24;57.22
49044;BME280;34860;48.066;14.124;2023-04-25T09:32:14;95857.47;;;12.29;57.09
49044;BME280;34860;48.066;14.124;2023-04-25T09:35:05;95860.25;;;12.29;57.10
49044;BME280;34860;48.066;14.124;2023-04-25T09:37:57;95866.31;;;12.27;57.09
49044;BME280;34860;48.066;14.124;2023-04-25T09:41:04;95874.22;;;12.20;57.13
49044;BME280;34860;48.066;14.124;2023-04-25T09:43:58;95879.78;;;12.10;57.34
49044;BME280;34860;48.066;14.124;2023-04-25T09:46:54;95886.91;;;12.02;57.43
49044;BME280;34860;48.066;14.124;2023-04-25T09:49:45;95893.75;;;11.92;57.56
49044;BME280;34860;48.066;14.124;2023-04-25T09:52:34;95881.50;;;11.80;57.60
49044;BME280;34860;48.066;14.124;2023-04-25T09:55:39;95890.28;;;11.69;57.91
49044;BME280;34860;48.066;14.124;2023-04-25T09:58:32;95895.88;;;11.60;58.09
49044;BME280;34860;48.066;14.124;2023-04-25T10:01:23;95898.78;;;11.56;58.35
49044;BME280;34860;48.066;14.124;2023-04-25T10:04:26;95905.91;;;11.48;58.35
49044;BME280;34860;48.066;14.124;2023-04-25T10:07:25;95909.75;;;11.41;58.46
49044;BME280;34860;48.066;14.124;2023-04-25T10:10:16;95913.16;;;11.36;58.55
49044;BME280;34860;48.066;14.124;2023-04-25T10:13:07;95902.31;;;11.29;58.53
49044;BME280;34860;48.066;14.124;2023-04-25T10:15:59;95901.53;;;11.19;58.36
49044;BME280;34860;48.066;14.124;2023-04-25T10:18:48;95907.84;;;11.11;58.43
49044;BME280;34860;48.066;14.124;2023-04-25T10:21:48;95899.47;;;11.01;58.59
49044;BME280;34860;48.066;14.124;2023-04-25T10:24:38;95902.06;;;10.96;58.54
49044;BME280;34860;48.066;14.124;2023-04-25T10:27:28;95901.91;;;10.90;58.71
49044;BME280;34860;48.066;14.124;2023-04-25T10:30:18;95904.03;;;10.86;58.64
49044;BME280;34860;48.066;14.124;2023-04-25T10:33:17;95898.31;;;10.80;58.66
49044;BME280;34860;48.066;14.124;2023-04-25T10:36:09;95895.66;;;10.77;58.77
49044;BME280;34860;48.066;14.124;2023-04-25T10:39:03;95897.22;;;10.78;58.56
49044;BME280;34860;48.066;14.124;2023-04-25T10:41:56;95891.53;;;10.81;58.57
49044;BME280;34860;48.066;14.124;2023-04-25T10:45:01;95878.41;;;10.91;58.65
49044;BME280;34860;48.066;14.124;2023-04-25T10:47:54;95880.78;;;11.02;58.35
49044;BME280;34860;48.066;14.124;2023-04-25T10:50:42;95885.75;;;11.16;58.39
49044;BME280;34860;48.066;14.124;2023-04-25T10:53:34;95882.69;;;11.33;57.88
49044;BME280;34860;48.066;14.124;2023-04-25T10:56:25;95894.63;;;11.42;57.99
49044;BME280;34860;48.066;14.124;2023-04-25T10:59:15;95885.03;;;11.53;57.84
49044;BME280;34860;48.066;14.124;2023-04-25T11:02:11;95907.31;;;11.62;57.80
49044;BME280;34860;48.066;14.124;2023-04-25T11:05:03;95905.00;;;11.70;57.69
49044;BME280;34860;48.066;14.124;2023-04-25T11:07:54;95911.97;;;11.74;57.52
49044;BME280;34860;48.066;14.124;2023-04-25T11:10:55;95915.97;;;11.73;57.44
49044;BME280;34860;48.066;14.124;2023-04-25T11:13:43;95908.72;;;11.67;57.50
49044;BME280;34860;48.066;14.124;2023-04-25T11:16:33;95922.31;;;11.55;57.52
49044;BME280;34860;48.066;14.124;2023-04-25T11:19:25;95920.72;;;11.36;57.70
49044;BME280;34860;48.066;14.124;2023-04-25T11:22:18;95942.00;;;11.20;57.91
49044;BME280;34860;48.066;14.124;2023-04-25T11:25:10;95927.59;;;11.03;58.06
49044;BME280;34860;48.066;14.124;2023-04-25T11:28:03;95920.13;;;10.91;58.17
49044;BME280;34860;48.066;14.124;2023-04-25T11:30:55;95914.53;;;10.82;58.26
49044;BME280;34860;48.066;14.124;2023-04-25T11:33:46;95906.94;;;10.73;58.46
49044;BME280;34860;48.066;14.124;2023-04-25T11:36:38;95906.75;;;10.67;58.54
49044;BME280;34860;48.066;14.124;2023-04-25T11:39:28;95900.56;;;10.63;58.46
49044;BME280;34860;48.066;14.124;2023-04-25T11:42:18;95900.72;;;10.60;58.57
49044;BME280;34860;48.066;14.124;2023-04-25T11:45:08;95900.25;;;10.61;58.62
49044;BME280;34860;48.066;14.124;2023-04-25T11:47:58;95900.88;;;10.65;58.37
49044;BME280;34860;48.066;14.124;2023-04-25T11:50:49;95897.81;;;10.72;58.51
49044;BME280;34860;48.066;14.124;2023-04-25T11:53:40;95900.03;;;10.87;58.47
49044;BME280;34860;48.066;14.124;2023-04-25T11:56:33;95896.09;;;11.06;58.38
49044;BME280;34860;48.066;14.124;2023-04-25T11:59:25;95899.72;;;11.35;58.27
49044;BME280;34860;48.066;14.124;2023-04-25T12:02:24;95905.78;;;11.70;58.06
49044;BME280;34860;48.066;14.124;2023-04-25T12:05:14;95898.34;;;12.04;57.70
49044;BME280;34860;48.066;14.124;2023-04-25T12:08:10;95894.56;;;12.44;57.57
49044;BME280;34860;48.066;14.124;2023-04-25T12:11:04;95888.72;;;12.85;57.32
49044;BME280;34860;48.066;14.124;2023-04-25T12:14:01;95894.72;;;13.26;57.35
49044;BME280;34860;48.066;14.124;2023-04-25T12:16:50;95895.88;;;13.68;56.99
49044;BME280;34860;48.066;14.124;2023-04-25T12:19:46;95901.56;;;14.12;56.87
49044;BME280;34860;48.066;14.124;2023-04-25T12:22:35;95892.03;;;14.49;56.66
49044;BME280;34860;48.066;14.124;2023-04-25T12:25:34;95884.69;;;14.81;56.44
49044;BME280;34860;48.066;14.124;2023-04-25T12:28:25;95878.06;;;15.14;56.51
49044;BME280;34860;48.066;14.124;2023-04-25T12:31:17;95878.25;;;15.46;56.23
49044;BME280;34860;48.066;14.124;2023-04-25T12:34:06;95881.50;;;15.80;56.33
49044;BME280;34860;48.066;14.124;2023-04-25T12:36:56;95880.31;;;16.13;56.26
49044;BME280;34860;48.066;14.124;2023-04-25T12:39:46;95882.97;;;16.48;56.15
49044;BME280;34860;48.066;14.124;2023-04-25T12:42:37;95876.66;;;16.85;56.14
49044;BME280;34860;48.066;14.124;2023-04-25T12:45:27;95886.13;;;17.25;56.01
49044;BME280;34860;48.066;14.124;2023-04-25T12:48:20;95866.44;;;17.63;55.98
49044;BME280;34860;48.066;14.124;2023-04-25T12:51:08;95874.50;;;17.99;55.81
49044;BME280;34860;48.066;14.124;2023-04-25T12:53:58;95870.22;;;18.26;55.50
49044;BME280;34860;48.066;14.124;2023-04-25T12:56:48;95865.13;;;18.47;55.64
49044;BME280;34860;48.066;14.124;2023-04-25T12:59:40;95866.19;;;18.61;55.42
49044;BME280;34860;48.066;14.124;2023-04-25T13:02:29;95878.44;;;18.63;55.48
49044;BME280;34860;48.066;14.124;2023-04-25T13:05:21;95886.38;;;18.59;55.49
49044;BME280;34860;48.066;14.124;2023-04-25T13:08:10;95891.72;;;18.46;55.56
49044;BME280;34860;48.066;14.124;2023-04-25T13:10:58;95903.72;;;18.24;56.08
49044;BME280;34860;48.066;14.124;2023-04-25T13:13:47;95916.63;;;17.93;56.16
49044;BME280;34860;48.066;14.124;2023-04-25T13:16:35;95930.19;;;17.51;56.45
49044;BME280;34860;48.066;14.124;2023-04-25T13:19:26;95942.06;;;16.97;56.70
49044;BME280;34860;48.066;14.124;2023-04-25T13:22:18;95956.09;;;16.45;57.11
49044;BME280;34860;48.066;14.124;2023-04-25T13:25:08;95946.06;;;15.91;57.61
49044;BME280;34860;48.066;14.124;2023-04-25T13:27:58;95950.47;;;15.42;57.97
49044;BME280;34860;48.066;14.124;2023-04-25T13:30:47;95945.47;;;14.96;58.13
49044;BME280;34860;48.066;14.124;2023-04-25T13:33:37;95942.94;;;14.53;58.62
49044;BME280;34860;48.066;14.124;2023-04-25T13:36:30;95944.69;;;14.11;58.59
49044;BME280;34860;48.066;14.124;2023-04-25T13:39:21;95939.69;;;13.76;58.75
49044;BME280;34860;48.066;14.124;2023-04-25T13:42:11;95936.00;;;13.46;59.03
49044;BME280;34860;48.066;14.124;2023-04-25T13:44:59;95936.91;;;13.19;58.88
49044;BME280;34860;48.066;14.124;2023-04-25T13:47:52;95939.66;;;12.95;58.99
49044;BME280;34860;48.066;14.124;2023-04-25T13:50:40;95943.41;;;12.73;59.02
49044;BME280;34860;48.066;14.124;2023-04-25T13:53:29;95948.59;;;12.56;59.25
49044;BME280;34860;48.066;14.124;2023-04-25T13:56:20;95952.50;;;12.40;58.96
49044;BME280;34860;48.066;14.124;2023-04-25T13:59:09;95949.88;;;12.27;58.75
49044;BME280;34860;48.066;14.124;2023-04-25T14:01:58;95948.66;;;12.19;58.75
49044;BME280;34860;48.066;14.124;2023-04-25T14:04:51;95946.47;;;12.14;58.80
49044;BME280;34860;48.066;14.124;2023-04-25T14:07:39;95951.28;;;12.13;58.56
49044;BME280;34860;48.066;14.124;2023-04-25T14:10:28;95949.88;;;12.18;58.66
49044;BME280;34860;48.066;14.124;2023-04-25T14:13:18;95957.13;;;12.34;58.47
49044;BME280;34860;48.066;14.124;2023-04-25T14:16:07;95960.50;;;12.57;58.21
49044;BME280;34860;48.066;14.124;2023-04-25T14:18:55;95971.09;;;12.86;58.06
49044;BME280;34860;48.066;14.124;2023-04-25T14:21:44;95969.66;;;13.09;57.62
49044;BME280;34860;48.066;14.124;2023-04-25T14:24:35;95975.94;;;13.28;57.48
49044;BME280;34860;48.066;14.124;2023-04-25T14:27:26;95967.22;;;13.35;57.40
49044;BME280;34860;48.066;14.124;2023-04-25T14:30:19;95969.41;;;13.40;57.40
49044;BME280;34860;48.066;14.124;2023-04-25T14:33:09;95971.53;;;13.46;57.25
49044;BME280;34860;48.066;14.124;2023-04-25T14:35:58;95965.47;;;13.47;56.97
49044;BME280;34860;48.066;14.124;2023-04-25T14:38:46;95962.97;;;13.49;56.97
49044;BME280;34860;48.066;14.124;2023-04-25T14:41:35;95962.69;;;13.47;56.96
49044;BME280;34860;48.066;14.124;2023-04-25T14:44:24;95973.09;;;13.47;57.04
49044;BME280;34860;48.066;14.124;2023-04-25T14:47:15;95966.59;;;13.40;57.04
49044;BME280;34860;48.066;14.124;2023-04-25T14:50:05;95964.44;;;13.35;56.98
49044;BME280;34860;48.066;14.124;2023-04-25T14:52:54;95967.09;;;13.30;57.13
49044;BME280;34860;48.066;14.124;2023-04-25T14:55:49;95968.97;;;13.23;57.16
49044;BME280;34860;48.066;14.124;2023-04-25T14:58:41;95961.72;;;13.17;57.05
49044;BME280;34860;48.066;14.124;2023-04-25T15:01:29;95966.38;;;13.11;57.09
49044;BME280;34860;48.066;14.124;2023-04-25T15:04:20;95964.25;;;13.05;57.12
49044;BME280;34860;48.066;14.124;2023-04-25T15:07:10;95965.66;;;13.01;57.25
49044;BME280;34860;48.066;14.124;2023-04-25T15:10:07;95969.69;;;13.00;57.16
49044;BME280;34860;48.066;14.124;2023-04-25T15:13:03;95974.19;;;12.97;56.98